sensor_id;sensor_type;location;lat;lon;timestamp;pressure;altitude;pressure_sealevel;temperature;humidity
41044;BME280;51680;49.806;18.774;2023-11-21T00:01:38;96564.59;;;10.53;91.60
41044;BME280;51680;49.806;18.774;2023-11-21T00:04:40;96559.00;;;10.58;91.62
41044;BME280;51680;49.806;18.774;2023-11-21T00:07:43;96559.59;;;10.61;91.33
41044;BME280;51680;49.806;18.774;2023-11-21T00:10:46;96550.81;;;10.62;90.70
41044;BME280;51680;49.806;18.774;2023-11-21T00:13:49;96554.50;;;10.60;90.67
41044;BME280;51680;49.806;18.774;2023-11-21T00:16:51;96572.06;;;10.58;90.79
41044;BME280;51680;49.806;18.774;2023-11-21T00:19:53;96572.66;;;10.61;90.82
41044;BME280;51680;49.806;18.774;2023-11-21T00:22:54;96577.88;;;10.61;90.11
41044;BME280;51680;49.806;18.774;2023-11-21T00:25:58;96584.53;;;10.65;90.41
41044;BME280;51680;49.806;18.774;2023-11-21T00:29:00;96588.09;;;10.64;90.02
41044;BME280;51680;49.806;18.774;2023-11-21T00:32:03;96588.56;;;10.58;90.73
41044;BME280;51680;49.806;18.774;2023-11-21T00:35:06;96596.03;;;10.52;89.99
41044;BME280;51680;49.806;18.774;2023-11-21T00:38:08;96591.97;;;10.48;90.79
41044;BME280;51680;49.806;18.774;2023-11-21T00:41:12;96594.47;;;10.49;90.92
41044;BME280;51680;49.806;18.774;2023-11-21T00:44:14;96590.91;;;10.50;90.41
41044;BME280;51680;49.806;18.774;2023-11-21T00:47:16;96594.59;;;10.48;90.85
41044;BME280;51680;49.806;18.774;2023-11-21T00:50:18;96591.97;;;10.48;90.46
41044;BME280;51680;49.806;18.774;2023-11-21T00:53:20;96590.69;;;10.53;89.99
41044;BME280;51680;49.806;18.774;2023-11-21T00:56:24;96594.38;;;10.51;90.18
41044;BME280;51680;49.806;18.774;2023-11-21T00:59:26;96592.56;;;10.51;89.93
41044;BME280;51680;49.806;18.774;2023-11-21T01:02:28;96592.34;;;10.54;89.48
41044;BME280;51680;49.806;18.774;2023-11-21T01:05:29;96580.00;;;10.56;89.38
41044;BME280;51680;49.806;18.774;2023-11-21T01:08:31;96583.41;;;10.46;90.18
41044;BME280;51680;49.806;18.774;2023-11-21T01:11:36;96590.91;;;10.39;90.07
41044;BME280;51680;49.806;18.774;2023-11-21T01:14:38;96581.88;;;10.32;90.83
41044;BME280;51680;49.806;18.774;2023-11-21T01:17:40;96583.31;;;10.36;90.18
41044;BME280;51680;49.806;18.774;2023-11-21T01:20:43;96590.91;;;10.39;90.17
41044;BME280;51680;49.806;18.774;2023-11-21T01:23:47;96588.25;;;10.28;89.48
41044;BME280;51680;49.806;18.774;2023-11-21T01:26:52;96586.41;;;10.41;90.10
41044;BME280;51680;49.806;18.774;2023-11-21T01:29:54;96585.09;;;10.47;89.72
41044;BME280;51680;49.806;18.774;2023-11-21T01:32:56;96590.91;;;10.50;89.53
41044;BME280;51680;49.806;18.774;2023-11-21T01:35:58;96595.44;;;10.59;89.47
41044;BME280;51680;49.806;18.774;2023-11-21T01:39:00;96597.56;;;10.65;89.80
41044;BME280;51680;49.806;18.774;2023-11-21T01:42:05;96598.03;;;10.70;89.52
41044;BME280;51680;49.806;18.774;2023-11-21T01:45:09;96603.84;;;10.74;89.66
41044;BME280;51680;49.806;18.774;2023-11-21T01:48:13;96606.94;;;10.79;89.67
41044;BME280;51680;49.806;18.774;2023-11-21T01:51:17;96601.59;;;10.69;88.56
41044;BME280;51680;49.806;18.774;2023-11-21T01:54:20;96601.25;;;10.74;89.33
41044;BME280;51680;49.806;18.774;2023-11-21T01:57:23;96605.97;;;10.69;89.38
41044;BME280;51680;49.806;18.774;2023-11-21T02:00:26;96594.97;;;10.65;89.22
41044;BME280;51680;49.806;18.774;2023-11-21T02:03:30;96609.19;;;10.61;89.53
41044;BME280;51680;49.806;18.774;2023-11-21T02:06:32;96597.09;;;10.60;89.26
41044;BME280;51680;49.806;18.774;2023-11-21T02:09:34;96599.81;;;10.59;89.53
41044;BME280;51680;49.806;18.774;2023-11-21T02:12:40;96604.22;;;10.58;89.51
41044;BME280;51680;49.806;18.774;2023-11-21T02:15:42;96606.81;;;10.58;89.61
41044;BME280;51680;49.806;18.774;2023-11-21T02:18:44;96600.06;;;10.56;89.37
41044;BME280;51680;49.806;18.774;2023-11-21T02:21:49;96605.03;;;10.59;89.02
41044;BME280;51680;49.806;18.774;2023-11-21T02:24:53;96607.28;;;10.52;89.03
41044;BME280;51680;49.806;18.774;2023-11-21T02:27:56;96606.78;;;10.47;89.12
41044;BME280;51680;49.806;18.774;2023-11-21T02:30:58;96605.50;;;10.42;88.70
41044;BME280;51680;49.806;18.774;2023-11-21T02:34:19;96607.47;;;10.38;89.17
41044;BME280;51680;49.806;18.774;2023-11-21T02:37:21;96614.38;;;10.39;89.01
41044;BME280;51680;49.806;18.774;2023-11-21T02:40:24;96614.13;;;10.42;88.84
41044;BME280;51680;49.806;18.774;2023-11-21T02:43:27;96610.34;;;10.46;88.76
41044;BME280;51680;49.806;18.774;2023-11-21T02:46:29;96612.00;;;10.47;88.54
41044;BME280;51680;49.806;18.774;2023-11-21T02:49:34;96610.56;;;10.43;88.46
41044;BME280;51680;49.806;18.774;2023-11-21T02:52:36;96619.34;;;10.42;88.57
41044;BME280;51680;49.806;18.774;2023-11-21T02:55:40;96618.66;;;10.51;88.24
41044;BME280;51680;49.806;18.774;2023-11-21T02:58:43;96623.88;;;10.51;88.28
41044;BME280;51680;49.806;18.774;2023-11-21T03:01:46;96616.91;;;10.52;88.24
41044;BME280;51680;49.806;18.774;2023-11-21T03:04:48;96625.78;;;10.49;88.30
41044;BME280;51680;49.806;18.774;2023-11-21T03:07:49;96624.13;;;10.48;88.66
41044;BME280;51680;49.806;18.774;2023-11-21T03:10:53;96622.13;;;10.52;88.83
41044;BME280;51680;49.806;18.774;2023-11-21T03:13:55;96619.41;;;10.53;88.09
41044;BME280;51680;49.806;18.774;2023-11-21T03:16:57;96621.75;;;10.56;88.54
41044;BME280;51680;49.806;18.774;2023-11-21T03:19:59;96619.88;;;10.58;88.33
41044;BME280;51680;49.806;18.774;2023-11-21T03:23:01;96616.31;;;10.59;88.05
41044;BME280;51680;49.806;18.774;2023-11-21T03:26:05;96617.84;;;10.62;87.98
41044;BME280;51680;49.806;18.774;2023-11-21T03:29:10;96619.28;;;10.66;87.63
41044;BME280;51680;49.806;18.774;2023-11-21T03:32:12;96618.81;;;10.61;87.52
41044;BME280;51680;49.806;18.774;2023-11-21T03:35:14;96617.75;;;10.63;87.97
41044;BME280;51680;49.806;18.774;2023-11-21T03:38:16;96620.69;;;10.59;87.72
41044;BME280;51680;49.806;18.774;2023-11-21T03:41:19;96612.97;;;10.57;87.80
41044;BME280;51680;49.806;18.774;2023-11-21T03:44:21;96617.13;;;10.49;87.42
41044;BME280;51680;49.806;18.774;2023-11-21T03:47:23;96618.91;;;10.48;88.10
41044;BME280;51680;49.806;18.774;2023-11-21T03:50:25;96625.06;;;10.47;87.72
41044;BME280;51680;49.806;18.774;2023-11-21T03:53:27;96615.78;;;10.43;87.93
41044;BME280;51680;49.806;18.774;2023-11-21T03:56:30;96621.84;;;10.44;87.58
41044;BME280;51680;49.806;18.774;2023-11-21T03:59:32;96615.78;;;10.43;87.69
41044;BME280;51680;49.806;18.774;2023-11-21T04:02:34;96620.09;;;10.44;88.04
41044;BME280;51680;49.806;18.774;2023-11-21T04:05:36;96615.34;;;10.49;87.40
41044;BME280;51680;49.806;18.774;2023-11-21T04:08:38;96617.84;;;10.51;87.69
41044;BME280;51680;49.806;18.774;2023-11-21T04:11:42;96612.97;;;10.57;87.11
41044;BME280;51680;49.806;18.774;2023-11-21T04:14:46;96619.50;;;10.52;87.75
41044;BME280;51680;49.806;18.774;2023-11-21T04:17:48;96611.56;;;10.53;87.24
41044;BME280;51680;49.806;18.774;2023-11-21T04:20:50;96618.66;;;10.51;87.36
41044;BME280;51680;49.806;18.774;2023-11-21T04:23:52;96620.31;;;10.52;87.38
41044;BME280;51680;49.806;18.774;2023-11-21T04:26:55;96615.94;;;10.53;86.85
41044;BME280;51680;49.806;18.774;2023-11-21T04:29:57;96617.00;;;10.50;86.74
41044;BME280;51680;49.806;18.774;2023-11-21T04:32:59;96617.22;;;10.47;87.21
41044;BME280;51680;49.806;18.774;2023-11-21T04:36:01;96626.00;;;10.46;86.84
41044;BME280;51680;49.806;18.774;2023-11-21T04:39:03;96620.69;;;10.48;87.21
41044;BME280;51680;49.806;18.774;2023-11-21T04:42:09;96626.00;;;10.46;87.18
41044;BME280;51680;49.806;18.774;2023-11-21T04:45:11;96620.78;;;10.46;87.37
41044;BME280;51680;49.806;18.774;2023-11-21T04:48:13;96627.91;;;10.44;87.01
41044;BME280;51680;49.806;18.774;2023-11-21T04:51:15;96630.06;;;10.50;86.79
41044;BME280;51680;49.806;18.774;2023-11-21T04:54:17;96635.97;;;10.52;86.79
41044;BME280;51680;49.806;18.774;2023-11-21T04:57:20;96636.22;;;10.49;86.89
41044;BME280;51680;49.806;18.774;2023-11-21T05:00:22;96648.53;;;10.47;86.97
41044;BME280;51680;49.806;18.774;2023-11-21T05:03:24;96645.00;;;10.48;86.56
41044;BME280;51680;49.806;18.774;2023-11-21T05:06:26;96647.38;;;10.51;86.58
41044;BME280;51680;49.806;18.774;2023-11-21T05:09:28;96640.28;;;10.53;86.48
41044;BME280;51680;49.806;18.774;2023-11-21T05:12:34;96649.69;;;10.32;86.07
41044;BME280;51680;49.806;18.774;2023-11-21T05:15:37;96662.53;;;10.35;87.04
41044;BME280;51680;49.806;18.774;2023-11-21T05:18:39;96651.84;;;10.38;86.66
41044;BME280;51680;49.806;18.774;2023-11-21T05:21:41;96666.09;;;10.34;87.12
41044;BME280;51680;49.806;18.774;2023-11-21T05:24:43;96658.25;;;10.34;86.86
41044;BME280;51680;49.806;18.774;2023-11-21T05:27:47;96665.59;;;10.29;87.68
41044;BME280;51680;49.806;18.774;2023-11-21T05:30:49;96664.28;;;10.35;87.69
41044;BME280;51680;49.806;18.774;2023-11-21T05:33:51;96662.41;;;10.37;87.65
41044;BME280;51680;49.806;18.774;2023-11-21T05:36:53;96666.41;;;10.30;88.01
41044;BME280;51680;49.806;18.774;2023-11-21T05:39:55;96660.97;;;10.33;87.99
41044;BME280;51680;49.806;18.774;2023-11-21T05:42:59;96662.41;;;10.37;87.41
41044;BME280;51680;49.806;18.774;2023-11-21T05:46:01;96666.56;;;10.39;87.39
41044;BME280;51680;49.806;18.774;2023-11-21T05:49:03;96663.97;;;10.39;87.40
41044;BME280;51680;49.806;18.774;2023-11-21T05:52:05;96678.41;;;10.43;87.37
41044;BME280;51680;49.806;18.774;2023-11-21T05:55:07;96672.59;;;10.40;87.30
41044;BME280;51680;49.806;18.774;2023-11-21T05:58:11;96674.59;;;10.36;87.69
41044;BME280;51680;49.806;18.774;2023-11-21T06:01:14;96677.22;;;10.36;87.98
41044;BME280;51680;49.806;18.774;2023-11-21T06:04:16;96677.00;;;10.39;87.97
41044;BME280;51680;49.806;18.774;2023-11-21T06:07:19;96678.66;;;10.40;87.77
41044;BME280;51680;49.806;18.774;2023-11-21T06:10:21;96681.97;;;10.42;88.16
41044;BME280;51680;49.806;18.774;2023-11-21T06:13:25;96679.25;;;10.44;87.86
41044;BME280;51680;49.806;18.774;2023-11-21T06:16:28;96689.69;;;10.44;87.85
41044;BME280;51680;49.806;18.774;2023-11-21T06:19:30;96702.94;;;10.41;87.87
41044;BME280;51680;49.806;18.774;2023-11-21T06:22:32;96707.00;;;10.45;87.54
41044;BME280;51680;49.806;18.774;2023-11-21T06:25:34;96712.31;;;10.43;87.78
41044;BME280;51680;49.806;18.774;2023-11-21T06:28:38;96709.03;;;10.52;87.66
41044;BME280;51680;49.806;18.774;2023-11-21T06:31:40;96720.69;;;10.59;86.64
41044;BME280;51680;49.806;18.774;2023-11-21T06:34:42;96719.06;;;10.69;86.72
41044;BME280;51680;49.806;18.774;2023-11-21T06:37:44;96723.91;;;10.74;86.22
41044;BME280;51680;49.806;18.774;2023-11-21T06:40:49;96733.31;;;10.76;86.43
41044;BME280;51680;49.806;18.774;2023-11-21T06:43:52;96733.94;;;10.80;85.79
41044;BME280;51680;49.806;18.774;2023-11-21T06:46:54;96733.09;;;10.79;86.17
41044;BME280;51680;49.806;18.774;2023-11-21T06:49:56;96728.81;;;10.78;86.23
41044;BME280;51680;49.806;18.774;2023-11-21T06:52:58;96734.84;;;10.68;86.60
41044;BME280;51680;49.806;18.774;2023-11-21T06:56:03;96728.75;;;10.67;86.61
41044;BME280;51680;49.806;18.774;2023-11-21T06:59:07;96728.06;;;10.65;86.83
41044;BME280;51680;49.806;18.774;2023-11-21T07:02:09;96731.59;;;10.53;86.48
41044;BME280;51680;49.806;18.774;2023-11-21T07:05:11;96726.72;;;10.49;86.72
41044;BME280;51680;49.806;18.774;2023-11-21T07:08:14;96740.09;;;10.44;87.16
41044;BME280;51680;49.806;18.774;2023-11-21T07:11:16;96738.78;;;10.39;87.44
41044;BME280;51680;49.806;18.774;2023-11-21T07:14:20;96732.09;;;10.35;87.56
41044;BME280;51680;49.806;18.774;2023-11-21T07:17:22;96737.44;;;10.33;87.60
41044;BME280;51680;49.806;18.774;2023-11-21T07:20:24;96733.16;;;10.32;87.21
41044;BME280;51680;49.806;18.774;2023-11-21T07:23:27;96731.28;;;10.34;87.48
41044;BME280;51680;49.806;18.774;2023-11-21T07:26:29;96738.63;;;10.29;87.15
41044;BME280;51680;49.806;18.774;2023-11-21T07:29:33;96742.91;;;10.30;87.37
41044;BME280;51680;49.806;18.774;2023-11-21T07:32:35;96741.34;;;10.28;87.15
41044;BME280;51680;49.806;18.774;2023-11-21T07:35:37;96730.94;;;10.39;87.22
41044;BME280;51680;49.806;18.774;2023-11-21T07:38:39;96726.81;;;10.47;87.19
41044;BME280;51680;49.806;18.774;2023-11-21T07:41:41;96728.25;;;10.51;86.25
41044;BME280;51680;49.806;18.774;2023-11-21T07:44:50;96736.75;;;10.66;86.46
41044;BME280;51680;49.806;18.774;2023-11-21T07:47:52;96738.53;;;10.76;85.74
41044;BME280;51680;49.806;18.774;2023-11-21T07:50:54;96736.34;;;10.94;85.72
41044;BME280;51680;49.806;18.774;2023-11-21T07:53:56;96744.53;;;11.11;85.51
41044;BME280;51680;49.806;18.774;2023-11-21T07:56:58;96730.63;;;11.22;84.13
41044;BME280;51680;49.806;18.774;2023-11-21T08:00:02;96743.84;;;11.31;84.65
41044;BME280;51680;49.806;18.774;2023-11-21T08:03:13;96749.06;;;11.31;84.44
41044;BME280;51680;49.806;18.774;2023-11-21T08:06:15;96750.50;;;11.35;84.53
41044;BME280;51680;49.806;18.774;2023-11-21T08:09:17;96747.63;;;11.38;84.01
41044;BME280;51680;49.806;18.774;2023-11-21T08:12:19;96755.25;;;11.30;84.29
41044;BME280;51680;49.806;18.774;2023-11-21T08:15:23;96761.41;;;11.29;84.32
41044;BME280;51680;49.806;18.774;2023-11-21T08:18:25;96761.16;;;11.21;84.60
41044;BME280;51680;49.806;18.774;2023-11-21T08:21:27;96770.31;;;11.27;84.96
41044;BME280;51680;49.806;18.774;2023-11-21T08:24:29;96774.94;;;11.23;85.20
41044;BME280;51680;49.806;18.774;2023-11-21T08:27:31;96775.88;;;11.33;85.27
41044;BME280;51680;49.806;18.774;2023-11-21T08:30:35;96777.00;;;11.42;85.54
41044;BME280;51680;49.806;18.774;2023-11-21T08:33:55;96776.97;;;11.53;84.64
41044;BME280;51680;49.806;18.774;2023-11-21T08:36:57;96769.75;;;11.67;84.69
41044;BME280;51680;49.806;18.774;2023-11-21T08:39:59;96777.34;;;11.92;83.98
41044;BME280;51680;49.806;18.774;2023-11-21T08:43:01;96769.09;;;12.08;83.73
41044;BME280;51680;49.806;18.774;2023-11-21T08:46:07;96778.81;;;12.17;82.80
41044;BME280;51680;49.806;18.774;2023-11-21T08:49:09;96778.00;;;12.16;82.37
41044;BME280;51680;49.806;18.774;2023-11-21T08:52:12;96777.56;;;12.11;82.54
41044;BME280;51680;49.806;18.774;2023-11-21T08:55:14;96790.91;;;11.97;82.50
41044;BME280;51680;49.806;18.774;2023-11-21T08:58:16;96777.13;;;11.84;82.48
41044;BME280;51680;49.806;18.774;2023-11-21T09:01:19;96793.75;;;11.72;83.09
41044;BME280;51680;49.806;18.774;2023-11-21T09:04:22;96789.00;;;11.66;82.06
41044;BME280;51680;49.806;18.774;2023-11-21T09:07:24;96786.38;;;11.77;83.87
41044;BME280;51680;49.806;18.774;2023-11-21T09:10:26;96786.50;;;11.87;83.29
41044;BME280;51680;49.806;18.774;2023-11-21T09:13:29;96792.56;;;11.98;83.30
41044;BME280;51680;49.806;18.774;2023-11-21T09:16:32;96789.09;;;11.98;82.65
41044;BME280;51680;49.806;18.774;2023-11-21T09:19:34;96798.38;;;12.02;83.00
41044;BME280;51680;49.806;18.774;2023-11-21T09:22:36;96787.56;;;11.95;83.02
41044;BME280;51680;49.806;18.774;2023-11-21T09:25:38;96787.44;;;11.97;82.80
41044;BME280;51680;49.806;18.774;2023-11-21T09:28:40;96786.81;;;12.04;83.35
41044;BME280;51680;49.806;18.774;2023-11-21T09:31:48;96781.66;;;12.25;82.67
41044;BME280;51680;49.806;18.774;2023-11-21T09:34:51;96770.81;;;12.29;81.61
41044;BME280;51680;49.806;18.774;2023-11-21T09:37:55;96773.78;;;12.36;81.68
41044;BME280;51680;49.806;18.774;2023-11-21T09:41:21;96781.13;;;12.42;80.22
41044;BME280;51680;49.806;18.774;2023-11-21T09:44:32;96787.66;;;12.47;80.51
41044;BME280;51680;49.806;18.774;2023-11-21T09:47:38;96782.94;;;12.41;79.95
41044;BME280;51680;49.806;18.774;2023-11-21T09:50:41;96784.34;;;12.45;80.64
41044;BME280;51680;49.806;18.774;2023-11-21T09:53:44;96783.84;;;12.51;80.66
41044;BME280;51680;49.806;18.774;2023-11-21T09:56:49;96782.66;;;12.55;81.09
41044;BME280;51680;49.806;18.774;2023-11-21T09:59:54;96789.50;;;12.67;81.13
41044;BME280;51680;49.806;18.774;2023-11-21T10:03:01;96782.09;;;12.72;80.68
41044;BME280;51680;49.806;18.774;2023-11-21T10:06:03;96780.38;;;12.62;78.93
41044;BME280;51680;49.806;18.774;2023-11-21T10:09:07;96781.63;;;12.67;79.87
41044;BME280;51680;49.806;18.774;2023-11-21T10:12:15;96782.34;;;12.69;79.88
41044;BME280;51680;49.806;18.774;2023-11-21T10:15:17;96792.31;;;12.75;80.10
41044;BME280;51680;49.806;18.774;2023-11-21T10:18:22;96793.00;;;12.77;79.47
41044;BME280;51680;49.806;18.774;2023-11-21T10:21:25;96788.63;;;12.78;79.11
41044;BME280;51680;49.806;18.774;2023-11-21T10:24:28;96793.22;;;12.85;79.29
41044;BME280;51680;49.806;18.774;2023-11-21T10:27:30;96783.44;;;12.98;79.44
41044;BME280;51680;49.806;18.774;2023-11-21T10:30:33;96778.81;;;13.11;79.51
41044;BME280;51680;49.806;18.774;2023-11-21T10:33:38;96774.47;;;13.21;78.78
41044;BME280;51680;49.806;18.774;2023-11-21T10:36:41;96781.53;;;13.30;78.33
41044;BME280;51680;49.806;18.774;2023-11-21T10:39:43;96779.63;;;13.32;77.79
41044;BME280;51680;49.806;18.774;2023-11-21T10:43:06;96782.50;;;13.29;77.49
41044;BME280;51680;49.806;18.774;2023-11-21T10:46:09;96778.69;;;13.33;77.85
41044;BME280;51680;49.806;18.774;2023-11-21T10:49:13;96774.00;;;13.37;77.20
41044;BME280;51680;49.806;18.774;2023-11-21T10:52:15;96784.34;;;13.38;77.54
41044;BME280;51680;49.806;18.774;2023-11-21T10:55:19;96779.19;;;13.27;77.03
41044;BME280;51680;49.806;18.774;2023-11-21T10:58:22;96782.78;;;13.26;77.20
41044;BME280;51680;49.806;18.774;2023-11-21T11:01:25;96778.34;;;13.27;76.50
41044;BME280;51680;49.806;18.774;2023-11-21T11:04:31;96777.53;;;13.26;76.53
41044;BME280;51680;49.806;18.774;2023-11-21T11:07:35;96777.09;;;13.21;76.43
41044;BME280;51680;49.806;18.774;2023-11-21T11:10:37;96776.91;;;13.13;76.42
41044;BME280;51680;49.806;18.774;2023-11-21T11:13:43;96772.19;;;13.07;76.00
41044;BME280;51680;49.806;18.774;2023-11-21T11:16:46;96782.66;;;13.07;76.41
41044;BME280;51680;49.806;18.774;2023-11-21T11:19:51;96770.50;;;13.06;76.07
41044;BME280;51680;49.806;18.774;2023-11-21T11:23:04;96772.69;;;13.01;75.14
41044;BME280;51680;49.806;18.774;2023-11-21T11:26:20;96775.78;;;12.95;74.21
41044;BME280;51680;49.806;18.774;2023-11-21T11:29:32;96772.97;;;12.87;75.11
41044;BME280;51680;49.806;18.774;2023-11-21T11:32:43;96772.84;;;12.89;75.19
41044;BME280;51680;49.806;18.774;2023-11-21T11:35:53;96775.34;;;12.90;74.87
41044;BME280;51680;49.806;18.774;2023-11-21T11:38:58;96769.59;;;12.96;75.01
41044;BME280;51680;49.806;18.774;2023-11-21T11:42:05;96771.97;;;12.99;74.65
41044;BME280;51680;49.806;18.774;2023-11-21T11:45:17;96782.06;;;13.04;74.26
41044;BME280;51680;49.806;18.774;2023-11-21T11:48:21;96773.53;;;13.02;74.52
41044;BME280;51680;49.806;18.774;2023-11-21T11:51:25;96783.19;;;12.90;73.33
41044;BME280;51680;49.806;18.774;2023-11-21T11:54:35;96779.25;;;12.96;74.59
41044;BME280;51680;49.806;18.774;2023-11-21T11:57:37;96791.50;;;12.95;75.54
41044;BME280;51680;49.806;18.774;2023-11-21T12:00:42;96784.16;;;12.89;75.43
41044;BME280;51680;49.806;18.774;2023-11-21T12:04:23;96779.16;;;12.86;74.96
41044;BME280;51680;49.806;18.774;2023-11-21T12:07:42;96783.19;;;12.90;75.33
41044;BME280;51680;49.806;18.774;2023-11-21T12:10:44;96780.00;;;12.87;75.98
41044;BME280;51680;49.806;18.774;2023-11-21T12:13:46;96776.31;;;12.89;76.09
41044;BME280;51680;49.806;18.774;2023-11-21T12:16:50;96777.50;;;12.85;75.76
41044;BME280;51680;49.806;18.774;2023-11-21T12:19:52;96776.94;;;12.82;75.54
41044;BME280;51680;49.806;18.774;2023-11-21T12:22:57;96775.13;;;12.82;75.32
41044;BME280;51680;49.806;18.774;2023-11-21T12:26:00;96774.44;;;12.80;75.60
41044;BME280;51680;49.806;18.774;2023-11-21T12:29:21;96783.38;;;12.78;75.61
41044;BME280;51680;49.806;18.774;2023-11-21T12:32:23;96784.34;;;12.77;75.54
41044;BME280;51680;49.806;18.774;2023-11-21T12:35:44;96782.69;;;12.76;75.86
41044;BME280;51680;49.806;18.774;2023-11-21T12:38:48;96780.88;;;12.76;75.44
41044;BME280;51680;49.806;18.774;2023-11-21T12:41:50;96782.41;;;12.79;75.99
41044;BME280;51680;49.806;18.774;2023-11-21T12:45:10;96777.28;;;12.77;75.38
41044;BME280;51680;49.806;18.774;2023-11-21T12:48:15;96785.16;;;12.77;76.22
41044;BME280;51680;49.806;18.774;2023-11-21T12:51:24;96788.03;;;12.74;75.97
41044;BME280;51680;49.806;18.774;2023-11-21T12:54:28;96797.34;;;12.67;75.98
41044;BME280;51680;49.806;18.774;2023-11-21T12:57:30;96791.66;;;12.62;76.43
41044;BME280;51680;49.806;18.774;2023-11-21T13:00:34;96789.66;;;12.55;76.56
41044;BME280;51680;49.806;18.774;2023-11-21T13:03:38;96792.91;;;12.47;77.13
41044;BME280;51680;49.806;18.774;2023-11-21T13:06:41;96791.03;;;12.38;77.36
41044;BME280;51680;49.806;18.774;2023-11-21T13:09:44;96794.13;;;12.32;77.58
41044;BME280;51680;49.806;18.774;2023-11-21T13:12:46;96808.31;;;12.30;77.81
41044;BME280;51680;49.806;18.774;2023-11-21T13:15:49;96813.66;;;12.28;77.99
41044;BME280;51680;49.806;18.774;2023-11-21T13:18:53;96809.84;;;12.32;78.78
41044;BME280;51680;49.806;18.774;2023-11-21T13:21:55;96814.84;;;12.35;77.91
41044;BME280;51680;49.806;18.774;2023-11-21T13:24:58;96810.41;;;12.36;78.33
41044;BME280;51680;49.806;18.774;2023-11-21T13:28:00;96811.50;;;12.33;78.73
41044;BME280;51680;49.806;18.774;2023-11-21T13:31:04;96811.25;;;12.36;78.98
41044;BME280;51680;49.806;18.774;2023-11-21T13:34:21;96812.91;;;12.37;78.84
41044;BME280;51680;49.806;18.774;2023-11-21T13:37:26;96811.84;;;12.40;78.75
41044;BME280;51680;49.806;18.774;2023-11-21T13:40:30;96814.34;;;12.41;78.42
41044;BME280;51680;49.806;18.774;2023-11-21T13:43:32;96811.72;;;12.41;78.68
41044;BME280;51680;49.806;18.774;2023-11-21T13:46:34;96811.47;;;12.44;78.91
41044;BME280;51680;49.806;18.774;2023-11-21T13:49:37;96809.34;;;12.38;78.79
41044;BME280;51680;49.806;18.774;2023-11-21T13:52:41;96812.06;;;12.37;78.99
41044;BME280;51680;49.806;18.774;2023-11-21T13:55:45;96807.91;;;12.34;78.68
41044;BME280;51680;49.806;18.774;2023-11-21T13:58:48;96814.22;;;12.32;79.04
41044;BME280;51680;49.806;18.774;2023-11-21T14:01:52;96819.38;;;12.22;78.71
41044;BME280;51680;49.806;18.774;2023-11-21T14:04:58;96826.31;;;12.12;78.76
41044;BME280;51680;49.806;18.774;2023-11-21T14:08:01;96830.13;;;11.97;78.93
41044;BME280;51680;49.806;18.774;2023-11-21T14:11:07;96833.69;;;11.85;79.15
41044;BME280;51680;49.806;18.774;2023-11-21T14:14:11;96834.66;;;11.84;79.06
41044;BME280;51680;49.806;18.774;2023-11-21T14:17:13;96841.66;;;11.84;78.77
41044;BME280;51680;49.806;18.774;2023-11-21T14:20:15;96840.00;;;11.83;79.70
41044;BME280;51680;49.806;18.774;2023-11-21T14:23:21;96843.44;;;11.83;79.18
41044;BME280;51680;49.806;18.774;2023-11-21T14:26:44;96840.09;;;11.81;79.45
41044;BME280;51680;49.806;18.774;2023-11-21T14:29:47;96843.78;;;11.79;78.88
41044;BME280;51680;49.806;18.774;2023-11-21T14:32:49;96844.28;;;11.73;79.67
41044;BME280;51680;49.806;18.774;2023-11-21T14:35:51;96850.09;;;11.65;79.36
41044;BME280;51680;49.806;18.774;2023-11-21T14:38:53;96848.03;;;11.58;80.06
41044;BME280;51680;49.806;18.774;2023-11-21T14:41:57;96854.44;;;11.54;80.32
41044;BME280;51680;49.806;18.774;2023-11-21T14:45:00;96861.56;;;11.52;80.43
41044;BME280;51680;49.806;18.774;2023-11-21T14:48:06;96863.56;;;11.48;80.94
41044;BME280;51680;49.806;18.774;2023-11-21T14:51:16;96860.72;;;11.40;80.84
41044;BME280;51680;49.806;18.774;2023-11-21T14:54:28;96857.84;;;11.32;81.59
41044;BME280;51680;49.806;18.774;2023-11-21T14:57:44;96858.44;;;11.25;81.93
41044;BME280;51680;49.806;18.774;2023-11-21T15:00:50;96859.59;;;11.21;81.99
41044;BME280;51680;49.806;18.774;2023-11-21T15:03:52;96865.78;;;11.20;82.07
41044;BME280;51680;49.806;18.774;2023-11-21T15:06:56;96862.31;;;11.19;82.40
41044;BME280;51680;49.806;18.774;2023-11-21T15:09:59;96866.34;;;11.12;82.33
41044;BME280;51680;49.806;18.774;2023-11-21T15:13:02;96866.34;;;11.12;82.49
41044;BME280;51680;49.806;18.774;2023-11-21T15:16:04;96865.75;;;11.09;82.61
41044;BME280;51680;49.806;18.774;2023-11-21T15:19:08;96868.69;;;11.04;82.67
41044;BME280;51680;49.806;18.774;2023-11-21T15:22:13;96860.16;;;11.02;83.04
41044;BME280;51680;49.806;18.774;2023-11-21T15:25:16;96871.97;;;10.95;83.47
41044;BME280;51680;49.806;18.774;2023-11-21T15:28:38;96872.94;;;10.94;82.83
41044;BME280;51680;49.806;18.774;2023-11-21T15:31:41;96878.03;;;10.96;83.46
41044;BME280;51680;49.806;18.774;2023-11-21T15:34:47;96876.00;;;10.88;83.69
41044;BME280;51680;49.806;18.774;2023-11-21T15:37:49;96884.66;;;10.89;83.49
41044;BME280;51680;49.806;18.774;2023-11-21T15:41:10;96888.56;;;10.83;83.62
41044;BME280;51680;49.806;18.774;2023-11-21T15:44:13;96891.66;;;10.88;83.17
41044;BME280;51680;49.806;18.774;2023-11-21T15:47:15;96881.72;;;10.93;83.50
41044;BME280;51680;49.806;18.774;2023-11-21T15:50:17;96889.19;;;10.98;83.67
41044;BME280;51680;49.806;18.774;2023-11-21T15:53:19;96887.31;;;11.00;83.73
41044;BME280;51680;49.806;18.774;2023-11-21T15:56:22;96892.66;;;10.98;83.48
41044;BME280;51680;49.806;18.774;2023-11-21T15:59:31;96895.25;;;10.98;83.85
41044;BME280;51680;49.806;18.774;2023-11-21T16:02:33;96899.28;;;10.91;83.63